createdAt,value
2022-08-03T02:23:23.812Z,19.74
2022-08-03T02:28:32.558Z,19.89
2022-08-03T02:33:41.295Z,19.83
2022-08-03T02:38:49.589Z,19.50
2022-08-03T02:44:05.683Z,19.38
2022-08-03T02:49:42.667Z,19.33
2022-08-03T02:54:38.007Z,19.25
2022-08-03T02:59:42.082Z,19.14
2022-08-03T03:05:52.834Z,19.17
2022-08-03T03:10:10.922Z,19.18
2022-08-03T03:15:13.486Z,19.11
2022-08-03T03:20:16.842Z,19.00
2022-08-03T03:25:33.972Z,19.22
2022-08-03T03:30:36.831Z,19.30
2022-08-03T03:35:41.825Z,19.37
2022-08-03T03:40:46.077Z,19.33
2022-08-03T03:46:38.641Z,19.38
2022-08-03T03:51:41.262Z,19.47
2022-08-03T03:56:44.671Z,19.57
2022-08-03T04:01:47.381Z,19.69
2022-08-03T04:07:19.923Z,19.79
2022-08-03T04:12:26.797Z,19.79
2022-08-03T04:17:31.080Z,19.89
2022-08-03T04:22:34.876Z,20.05
2022-08-03T04:27:41.926Z,20.13
2022-08-03T04:32:50.353Z,20.15
2022-08-03T04:37:55.394Z,20.27
2022-08-03T04:43:00.149Z,20.44
2022-08-03T04:48:03.342Z,20.65
2022-08-03T04:53:06.849Z,20.80
2022-08-03T04:58:12.098Z,20.90
2022-08-03T05:03:23.653Z,21.06
2022-08-03T05:08:28.053Z,21.26
2022-08-03T05:13:31.789Z,21.40
2022-08-03T05:18:35.495Z,21.57
2022-08-03T05:23:38.158Z,21.77
2022-08-03T05:28:49.927Z,21.87
2022-08-03T05:33:54.879Z,22.01
2022-08-03T05:39:02.210Z,22.21
2022-08-03T05:44:06.671Z,22.46
2022-08-03T05:49:12.048Z,22.60
2022-08-03T05:54:14.818Z,22.68
2022-08-03T05:59:37.659Z,22.89
2022-08-03T06:04:40.858Z,23.16
2022-08-03T06:10:34.467Z,23.36
2022-08-03T06:15:11.274Z,23.48
2022-08-03T06:20:16.098Z,23.68
2022-08-03T06:25:21.328Z,23.80
2022-08-03T06:30:25.129Z,24.17
2022-08-03T06:35:28.119Z,24.28
2022-08-03T06:40:31.755Z,24.42
2022-08-03T06:45:35.828Z,24.70
2022-08-03T06:50:41.063Z,25.00
2022-08-03T06:55:45.363Z,25.06
2022-08-03T07:00:49.240Z,25.31
2022-08-03T07:05:51.897Z,25.38
2022-08-03T07:10:54.883Z,25.67
2022-08-03T07:16:01.733Z,25.72
2022-08-03T07:21:04.441Z,25.96
2022-08-03T07:26:07.187Z,25.97
2022-08-03T07:31:11.055Z,26.44
2022-08-03T07:36:13.840Z,26.58
2022-08-03T07:41:16.836Z,26.52
2022-08-03T07:46:20.216Z,26.66
2022-08-03T07:51:23.556Z,26.82
2022-08-03T07:56:27.628Z,27.15
2022-08-03T08:01:36.072Z,27.18
2022-08-03T08:06:39.847Z,27.39
2022-08-03T08:11:42.674Z,27.40
2022-08-03T08:16:47.785Z,27.54
2022-08-03T08:22:02.425Z,27.68
2022-08-03T08:27:06.081Z,28.02
2022-08-03T08:32:10.809Z,28.20
2022-08-03T08:37:13.557Z,28.26
2022-08-03T08:42:16.626Z,28.15
2022-08-03T08:47:24.155Z,28.41
2022-08-03T08:52:31.787Z,28.29
2022-08-03T08:57:42.708Z,28.55
2022-08-03T09:02:47.471Z,28.67
2022-08-03T09:07:50.637Z,28.82
2022-08-03T09:12:53.766Z,29.29
2022-08-03T09:18:00.398Z,29.46
2022-08-03T09:23:24.698Z,29.68
2022-08-03T09:28:59.411Z,29.69
2022-08-03T09:34:02.423Z,30.15
2022-08-03T09:39:06.892Z,30.16
2022-08-03T09:44:25.359Z,30.50
2022-08-03T09:49:29.740Z,30.32
2022-08-03T09:54:33.776Z,30.14
2022-08-03T09:59:39.116Z,30.15
2022-08-03T10:04:48.461Z,30.35
2022-08-03T10:09:57.613Z,30.36
2022-08-03T10:15:00.830Z,30.44
2022-08-03T10:20:06.568Z,30.49
2022-08-03T10:25:11.802Z,30.75
2022-08-03T10:30:16.735Z,30.71
2022-08-03T10:35:22.881Z,31.18
2022-08-03T10:40:46.844Z,30.87
2022-08-03T10:45:51.219Z,31.26
2022-08-03T10:50:56.702Z,31.48
2022-08-03T10:56:20.350Z,31.72
2022-08-03T11:02:00.850Z,32.30
2022-08-03T11:07:22.556Z,31.80
2022-08-03T11:12:30.855Z,32.61
2022-08-03T11:17:46.270Z,32.23
2022-08-03T11:23:01.153Z,32.31
2022-08-03T11:28:25.527Z,32.56
2022-08-03T11:33:32.020Z,32.07
2022-08-03T11:38:35.466Z,31.61
2022-08-03T11:43:45.260Z,32.30
2022-08-03T11:48:49.795Z,32.82
2022-08-03T11:53:55.074Z,32.70
2022-08-03T11:59:20.354Z,32.69
2022-08-03T12:04:22.558Z,32.26
2022-08-03T12:09:26.280Z,32.21
2022-08-03T12:14:48.713Z,32.51
2022-08-03T12:19:52.927Z,32.68
2022-08-03T12:24:56.240Z,32.06
2022-08-03T12:30:01.028Z,32.22
2022-08-03T12:35:05.492Z,32.35
2022-08-03T12:40:17.806Z,32.09
2022-08-03T12:45:24.124Z,32.40
2022-08-03T12:50:29.046Z,32.46
2022-08-03T12:55:40.131Z,32.44
2022-08-03T13:07:15.239Z,32.44
2022-08-03T13:12:20.899Z,32.38
2022-08-03T13:17:24.204Z,32.59
2022-08-03T13:22:28.506Z,32.43
2022-08-03T13:28:04.353Z,32.55
2022-08-03T13:32:54.746Z,32.23
2022-08-03T13:37:57.826Z,32.06
2022-08-03T13:43:02.426Z,31.99
2022-08-03T13:48:05.918Z,31.82
2022-08-03T13:53:09.014Z,31.72
2022-08-03T13:58:12.691Z,31.97
2022-08-03T14:03:15.538Z,32.40
2022-08-03T14:08:18.334Z,31.91
2022-08-03T14:13:22.711Z,31.37
2022-08-03T14:18:28.639Z,31.64
2022-08-03T14:23:38.043Z,31.57
2022-08-03T14:28:41.907Z,31.39
2022-08-03T14:33:44.800Z,31.35
2022-08-03T14:38:47.534Z,31.19
2022-08-03T14:44:02.239Z,30.67
2022-08-03T14:50:36.396Z,30.90
2022-08-03T14:54:30.494Z,30.61
2022-08-03T14:59:55.854Z,30.14
2022-08-03T15:04:56.251Z,30.25
2022-08-03T15:09:59.061Z,30.10
2022-08-03T15:15:02.357Z,29.95
2022-08-03T15:20:28.967Z,29.80
2022-08-03T15:26:28.679Z,29.82
2022-08-03T15:30:54.736Z,29.61
2022-08-03T15:35:59.542Z,29.31
2022-08-03T15:41:02.249Z,29.27
2022-08-03T15:46:28.619Z,29.18
2022-08-03T15:51:29.266Z,29.15
2022-08-03T15:56:32.184Z,29.02
2022-08-03T16:01:35.777Z,29.04
2022-08-03T16:06:39.468Z,28.99
2022-08-03T16:11:42.158Z,28.86
2022-08-03T16:16:45.866Z,28.81
2022-08-03T16:21:50.184Z,28.61
2022-08-03T16:26:55.578Z,28.52
2022-08-03T16:32:09.317Z,28.49
2022-08-03T16:37:37.085Z,28.33
2022-08-03T16:42:35.344Z,28.15
2022-08-03T16:47:38.826Z,28.03
2022-08-03T16:52:43.067Z,27.87
2022-08-03T16:57:59.119Z,27.74
2022-08-03T17:03:18.777Z,27.66
2022-08-03T17:08:28.155Z,27.45
2022-08-03T17:13:39.177Z,27.27
2022-08-03T17:18:50.407Z,27.07
2022-08-03T17:23:59.461Z,26.91
2022-08-03T17:29:11.303Z,26.75
2022-08-03T17:34:17.280Z,26.53
2022-08-03T17:39:41.876Z,26.15
2022-08-03T17:44:47.106Z,25.76
2022-08-03T17:49:52.309Z,25.55
2022-08-03T17:55:56.226Z,25.45
2022-08-03T18:00:45.150Z,25.16
2022-08-03T18:06:10.439Z,25.14
2022-08-03T18:11:15.909Z,25.00
2022-08-03T18:16:24.647Z,24.78
2022-08-03T18:22:03.231Z,24.75
2022-08-03T18:26:54.724Z,24.66
2022-08-03T18:32:03.798Z,24.69
2022-08-03T18:37:10.424Z,24.67
2022-08-03T18:42:19.614Z,24.60
2022-08-03T18:47:50.841Z,24.40
2022-08-03T18:53:05.029Z,23.95
2022-08-03T18:58:25.612Z,23.91
2022-08-03T19:03:43.402Z,23.95
2022-08-03T19:08:50.818Z,23.71
2022-08-03T19:13:56.434Z,23.54
2022-08-03T19:19:01.451Z,23.45
2022-08-03T19:24:10.155Z,23.37
2022-08-03T19:29:15.171Z,23.24
2022-08-03T19:34:19.506Z,23.23
2022-08-03T19:39:23.272Z,23.14
2022-08-03T19:44:31.309Z,23.03
2022-08-03T19:50:00.004Z,22.41
2022-08-03T19:55:05.260Z,22.18
2022-08-03T20:00:12.119Z,22.36
2022-08-03T20:05:19.580Z,22.42
2022-08-03T20:10:23.306Z,22.42
2022-08-03T20:15:31.149Z,22.31
2022-08-03T20:20:37.293Z,22.33
2022-08-03T20:25:48.680Z,22.30
2022-08-03T20:31:01.983Z,22.40
2022-08-03T20:36:05.539Z,22.29
2022-08-03T20:41:09.565Z,22.09
2022-08-03T20:46:30.973Z,22.22
2022-08-03T20:51:50.626Z,22.16
2022-08-03T20:56:57.659Z,22.18
2022-08-03T21:02:00.940Z,22.07
2022-08-03T21:07:16.294Z,21.98
2022-08-03T21:12:29.179Z,21.77
2022-08-03T21:17:41.591Z,21.62
2022-08-03T21:28:53.802Z,21.46
2022-08-03T21:33:58.272Z,21.42
2022-08-03T21:39:01.564Z,21.40
2022-08-03T21:44:06.103Z,21.12
2022-08-03T21:49:52.646Z,21.06
2022-08-03T21:54:36.569Z,21.11
2022-08-03T21:59:44.863Z,21.21
2022-08-03T22:04:53.174Z,21.14
2022-08-03T22:10:00.910Z,21.01
2022-08-03T22:15:07.005Z,21.00
2022-08-03T22:20:13.855Z,21.01
2022-08-03T22:25:16.601Z,21.07
2022-08-03T22:30:20.183Z,21.02
2022-08-03T22:35:25.178Z,20.88
2022-08-03T22:40:28.071Z,20.67
2022-08-03T22:46:06.206Z,20.71
2022-08-03T22:50:56.608Z,20.64
2022-08-03T22:55:59.364Z,20.65
2022-08-03T23:01:07.017Z,20.63
2022-08-03T23:06:10.123Z,20.58
2022-08-03T23:11:15.241Z,20.46
2022-08-03T23:16:28.987Z,20.62
2022-08-03T23:21:53.676Z,20.61
2022-08-03T23:26:56.700Z,20.37
2022-08-03T23:32:01.843Z,20.34
2022-08-03T23:37:05.862Z,20.54
2022-08-03T23:42:10.031Z,20.70
2022-08-03T23:47:13.643Z,20.84
2022-08-03T23:52:24.171Z,20.91
2022-08-03T23:57:34.047Z,20.83
